createdAt,value
2022-12-09T00:00:18.437Z,55.47
2022-12-09T00:02:46.267Z,54.92
2022-12-09T00:05:14.154Z,55.58
2022-12-09T00:07:43.393Z,55.36
2022-12-09T00:10:11.531Z,55.13
2022-12-09T00:12:39.446Z,55.01
2022-12-09T00:15:08.850Z,54.91
2022-12-09T00:17:36.806Z,55.33
2022-12-09T00:20:06.014Z,55.23
2022-12-09T00:22:34.048Z,55.13
2022-12-09T00:25:03.255Z,55.22
2022-12-09T00:27:31.139Z,55.01
2022-12-09T00:29:59.860Z,55.20
2022-12-09T00:32:27.722Z,54.84
2022-12-09T00:34:55.512Z,54.60
2022-12-09T00:37:23.158Z,54.97
2022-12-09T00:39:50.830Z,55.46
2022-12-09T00:42:19.876Z,54.82
2022-12-09T00:44:47.776Z,55.10
2022-12-09T00:47:15.550Z,55.03
2022-12-09T00:49:43.349Z,55.07
2022-12-09T00:52:10.976Z,55.09
2022-12-09T00:54:39.040Z,55.16
2022-12-09T00:57:07.003Z,54.63
2022-12-09T00:59:36.179Z,55.09
2022-12-09T01:02:03.934Z,55.10
2022-12-09T01:04:33.832Z,55.11
2022-12-09T01:07:01.606Z,54.85
2022-12-09T01:09:29.836Z,54.80
2022-12-09T01:11:57.718Z,54.66
2022-12-09T01:14:25.795Z,55.20
2022-12-09T01:16:54.925Z,55.47
2022-12-09T01:19:23.035Z,55.38
2022-12-09T01:21:54.909Z,55.29
2022-12-09T01:24:22.871Z,55.54
2022-12-09T01:26:50.734Z,55.68
2022-12-09T01:29:18.451Z,55.56
2022-12-09T01:31:46.137Z,55.43
2022-12-09T01:34:15.221Z,55.83
2022-12-09T01:36:42.882Z,55.33
2022-12-09T01:39:10.964Z,55.50
2022-12-09T01:41:38.757Z,55.60
2022-12-09T01:46:41.318Z,55.42
2022-12-09T01:49:10.361Z,55.65
2022-12-09T01:51:39.675Z,55.56
2022-12-09T01:54:07.461Z,55.78
2022-12-09T01:56:36.007Z,55.75
2022-12-09T01:59:05.244Z,55.80
2022-12-09T02:01:33.078Z,55.61
2022-12-09T02:04:01.155Z,55.14
2022-12-09T02:06:29.383Z,55.26
2022-12-09T02:08:58.593Z,55.70
2022-12-09T02:11:30.647Z,55.29
2022-12-09T02:14:02.453Z,55.18
2022-12-09T02:16:30.644Z,55.29
2022-12-09T02:19:01.164Z,55.04
2022-12-09T02:21:31.158Z,55.53
2022-12-09T02:24:05.454Z,55.42
2022-12-09T02:26:36.968Z,55.37
2022-12-09T02:29:19.764Z,55.15
2022-12-09T02:32:08.250Z,55.31
2022-12-09T02:34:38.793Z,55.34
2022-12-09T02:37:09.738Z,55.58
2022-12-09T02:39:42.804Z,55.64
2022-12-09T02:42:10.877Z,55.20
2022-12-09T02:44:39.013Z,55.33
2022-12-09T02:47:07.284Z,55.79
2022-12-09T02:49:35.108Z,55.94
2022-12-09T02:52:04.252Z,55.69
2022-12-09T02:54:32.358Z,55.66
2022-12-09T02:57:02.837Z,55.67
2022-12-09T02:59:30.879Z,55.73
2022-12-09T03:02:14.421Z,55.78
2022-12-09T03:04:43.811Z,56.16
2022-12-09T03:07:16.975Z,55.74
2022-12-09T03:09:46.075Z,55.86
2022-12-09T03:12:15.392Z,55.58
2022-12-09T03:14:44.690Z,56.18
2022-12-09T03:17:14.480Z,56.35
2022-12-09T03:19:43.657Z,55.59
2022-12-09T03:22:14.800Z,55.96
2022-12-09T03:24:45.672Z,56.06
2022-12-09T03:27:15.750Z,56.18
2022-12-09T03:29:43.941Z,56.08
2022-12-09T03:32:12.022Z,55.81
2022-12-09T03:34:40.319Z,55.88
2022-12-09T03:37:08.260Z,56.17
2022-12-09T03:39:38.739Z,55.76
2022-12-09T03:42:08.653Z,56.24
2022-12-09T03:44:38.180Z,56.05
2022-12-09T03:47:06.868Z,55.90
2022-12-09T03:49:35.830Z,55.74
2022-12-09T03:52:05.323Z,56.13
2022-12-09T03:54:34.746Z,56.39
2022-12-09T03:57:04.150Z,55.67
2022-12-09T03:59:34.782Z,56.57
2022-12-09T04:02:03.670Z,55.88
2022-12-09T04:04:32.123Z,56.07
2022-12-09T04:07:00.068Z,56.03
2022-12-09T04:09:28.488Z,56.59
2022-12-09T04:11:56.325Z,56.20
2022-12-09T04:14:25.479Z,56.99
2022-12-09T04:16:53.331Z,56.76
2022-12-09T04:19:21.133Z,56.51
2022-12-09T04:21:48.877Z,56.87
2022-12-09T04:24:17.320Z,56.87
2022-12-09T04:26:45.200Z,56.75
2022-12-09T04:29:15.348Z,56.99
2022-12-09T04:31:44.745Z,57.12
2022-12-09T04:34:13.951Z,56.89
2022-12-09T04:36:41.737Z,56.45
2022-12-09T04:39:10.039Z,56.91
2022-12-09T04:41:38.181Z,56.72
2022-12-09T04:44:06.517Z,56.57
2022-12-09T04:46:34.416Z,56.24
2022-12-09T04:49:04.160Z,56.30
2022-12-09T04:51:39.223Z,56.57
2022-12-09T04:54:07.700Z,56.80
2022-12-09T04:56:35.723Z,56.33
2022-12-09T04:59:04.804Z,56.60
2022-12-09T05:01:33.248Z,56.64
2022-12-09T05:04:01.351Z,56.59
2022-12-09T05:06:31.232Z,56.05
2022-12-09T05:08:59.452Z,56.25
2022-12-09T05:11:27.541Z,56.25
2022-12-09T05:13:55.487Z,55.84
2022-12-09T05:16:24.109Z,56.15
2022-12-09T05:18:52.411Z,56.44
2022-12-09T05:21:21.132Z,55.97
2022-12-09T05:23:50.455Z,56.25
2022-12-09T05:26:21.366Z,55.99
2022-12-09T05:28:49.372Z,56.03
2022-12-09T05:31:19.840Z,56.24
2022-12-09T05:33:48.212Z,55.89
2022-12-09T05:36:17.884Z,55.78
2022-12-09T05:38:45.787Z,56.03
2022-12-09T05:41:15.853Z,55.65
2022-12-09T05:43:44.037Z,55.29
2022-12-09T05:46:12.294Z,55.47
2022-12-09T05:48:40.609Z,55.45
2022-12-09T05:51:11.761Z,55.22
2022-12-09T05:53:39.803Z,54.89
2022-12-09T05:56:07.682Z,54.93
2022-12-09T05:58:36.979Z,54.53
2022-12-09T06:01:05.745Z,54.21
2022-12-09T06:03:35.507Z,54.30
2022-12-09T06:06:06.773Z,54.41
2022-12-09T06:08:35.537Z,54.35
2022-12-09T06:11:03.454Z,54.04
2022-12-09T06:13:32.097Z,54.34
2022-12-09T06:16:05.338Z,54.57
2022-12-09T06:18:33.877Z,54.48
2022-12-09T06:21:06.292Z,54.09
2022-12-09T06:23:35.431Z,54.04
2022-12-09T06:26:03.565Z,54.16
2022-12-09T06:28:31.438Z,54.15
2022-12-09T06:31:00.050Z,54.21
2022-12-09T06:33:53.602Z,54.32
2022-12-09T06:36:16.881Z,53.97
2022-12-09T06:38:47.262Z,54.13
2022-12-09T06:41:15.755Z,54.59
2022-12-09T06:43:44.021Z,54.51
2022-12-09T06:46:13.010Z,54.43
2022-12-09T06:48:42.804Z,54.68
2022-12-09T06:51:11.177Z,54.29
2022-12-09T06:53:39.185Z,54.41
2022-12-09T06:56:12.170Z,55.12
2022-12-09T06:58:41.438Z,54.89
2022-12-09T07:01:13.786Z,55.08
2022-12-09T07:03:43.904Z,54.96
2022-12-09T07:06:17.985Z,55.96
2022-12-09T07:08:45.899Z,55.06
2022-12-09T07:11:14.691Z,55.20
2022-12-09T07:13:42.989Z,55.82
2022-12-09T07:16:11.043Z,55.28
2022-12-09T07:18:39.111Z,56.08
2022-12-09T07:21:09.510Z,56.25
2022-12-09T07:23:38.301Z,56.42
2022-12-09T07:26:07.399Z,56.54
2022-12-09T07:28:36.449Z,56.69
2022-12-09T07:31:04.585Z,56.45
2022-12-09T07:33:32.729Z,57.24
2022-12-09T07:36:01.108Z,56.67
2022-12-09T07:38:30.411Z,56.76
2022-12-09T07:40:58.515Z,56.37
2022-12-09T07:46:08.488Z,57.04
2022-12-09T07:48:36.890Z,56.69
2022-12-09T07:51:05.444Z,56.58
2022-12-09T07:53:35.249Z,56.15
2022-12-09T07:56:04.626Z,56.34
2022-12-09T07:58:32.795Z,55.84
2022-12-09T08:01:06.314Z,56.30
2022-12-09T08:03:34.303Z,55.90
2022-12-09T08:06:02.564Z,56.03
2022-12-09T08:08:31.129Z,55.66
2022-12-09T08:11:08.624Z,55.43
2022-12-09T08:13:36.675Z,55.39
2022-12-09T08:16:05.283Z,55.08
2022-12-09T08:18:33.357Z,54.90
2022-12-09T08:21:01.558Z,55.05
2022-12-09T08:23:29.682Z,54.77
2022-12-09T08:25:58.028Z,54.47
2022-12-09T08:28:29.077Z,54.47
2022-12-09T08:30:57.411Z,54.47
2022-12-09T08:33:26.840Z,54.36
2022-12-09T08:35:54.840Z,54.17
2022-12-09T08:38:22.792Z,54.16
2022-12-09T08:40:50.616Z,53.88
2022-12-09T08:43:18.508Z,53.80
2022-12-09T08:45:48.932Z,53.96
2022-12-09T08:48:17.523Z,53.65
2022-12-09T08:50:46.206Z,53.45
2022-12-09T08:53:14.636Z,52.81
2022-12-09T08:55:42.988Z,53.52
2022-12-09T08:58:11.128Z,53.19
2022-12-09T09:00:39.138Z,53.04
2022-12-09T09:03:12.262Z,52.69
2022-12-09T09:05:40.551Z,52.50
2022-12-09T09:08:09.000Z,52.54
2022-12-09T09:10:43.398Z,52.65
2022-12-09T09:13:11.525Z,52.71
2022-12-09T09:15:40.476Z,52.48
2022-12-09T09:18:11.014Z,52.57
2022-12-09T09:20:38.998Z,52.11
2022-12-09T09:23:06.997Z,51.61
2022-12-09T09:25:35.289Z,51.97
2022-12-09T09:28:03.647Z,51.87
2022-12-09T09:30:32.196Z,52.39
2022-12-09T09:33:00.290Z,51.83
2022-12-09T09:35:30.444Z,51.59
2022-12-09T09:37:59.374Z,51.47
2022-12-09T09:40:27.574Z,51.59
2022-12-09T09:42:55.663Z,51.25
2022-12-09T09:45:24.893Z,51.51
2022-12-09T09:47:54.410Z,51.44
2022-12-09T09:50:30.925Z,51.31
2022-12-09T09:53:12.167Z,51.60
2022-12-09T09:55:43.873Z,51.22
2022-12-09T09:58:15.077Z,50.97
2022-12-09T10:00:47.628Z,51.23
2022-12-09T10:03:18.969Z,50.92
2022-12-09T10:05:51.868Z,50.89
2022-12-09T10:08:28.245Z,50.72
2022-12-09T10:11:05.159Z,50.85
2022-12-09T10:13:42.219Z,51.09
2022-12-09T10:16:17.882Z,50.36
2022-12-09T10:19:07.385Z,50.60
2022-12-09T10:21:39.499Z,50.96
2022-12-09T10:24:17.423Z,51.11
2022-12-09T10:26:45.317Z,50.68
2022-12-09T10:29:16.810Z,50.55
2022-12-09T10:31:45.209Z,50.60
2022-12-09T10:34:16.123Z,50.58
2022-12-09T10:36:45.305Z,50.92
2022-12-09T10:39:16.556Z,50.69
2022-12-09T10:42:03.939Z,50.85
2022-12-09T10:44:31.978Z,51.36
2022-12-09T10:47:01.413Z,50.70
2022-12-09T10:49:29.657Z,50.52
2022-12-09T10:51:58.115Z,50.68
2022-12-09T10:54:34.977Z,50.39
2022-12-09T10:57:26.865Z,51.67
2022-12-09T11:00:01.850Z,51.09
2022-12-09T11:02:30.370Z,50.68
2022-12-09T11:05:19.104Z,51.06
2022-12-09T11:07:49.198Z,51.29
2022-12-09T11:10:20.713Z,50.32
2022-12-09T11:12:52.111Z,50.86
2022-12-09T11:15:26.603Z,50.64
2022-12-09T11:18:00.411Z,50.13
2022-12-09T11:20:29.676Z,50.59
2022-12-09T11:23:04.268Z,50.66
2022-12-09T11:25:35.192Z,50.73
2022-12-09T11:28:04.042Z,51.17
2022-12-09T11:30:34.075Z,50.66
2022-12-09T11:33:06.063Z,50.31
2022-12-09T11:35:38.331Z,50.80
2022-12-09T11:38:23.225Z,50.35
2022-12-09T11:41:15.352Z,50.14
2022-12-09T11:43:44.655Z,49.54
2022-12-09T11:46:21.460Z,48.60
2022-12-09T11:48:51.554Z,50.34
2022-12-09T11:51:21.820Z,49.46
2022-12-09T11:53:49.751Z,49.35
2022-12-09T11:56:19.663Z,49.21
2022-12-09T11:58:50.743Z,49.60
2022-12-09T12:01:21.108Z,49.28
2022-12-09T12:03:51.100Z,49.20
2022-12-09T12:06:21.671Z,49.35
2022-12-09T12:08:51.097Z,48.73
2022-12-09T12:11:21.921Z,49.03
2022-12-09T12:13:50.420Z,49.14
2022-12-09T12:16:19.785Z,48.74
2022-12-09T12:18:48.859Z,48.92
2022-12-09T12:21:21.757Z,48.89
2022-12-09T12:23:59.887Z,49.02
2022-12-09T12:26:30.448Z,48.86
2022-12-09T12:29:09.160Z,48.24
2022-12-09T12:31:51.413Z,47.01
2022-12-09T12:34:25.663Z,46.30
2022-12-09T12:36:57.407Z,45.96
2022-12-09T12:39:32.361Z,46.09
2022-12-09T12:42:07.063Z,46.25
2022-12-09T12:45:01.795Z,45.72
2022-12-09T12:47:31.450Z,45.55
2022-12-09T12:50:47.984Z,45.83
2022-12-09T12:53:24.053Z,45.90
2022-12-09T12:55:55.092Z,46.27
2022-12-09T12:58:34.553Z,46.21
2022-12-09T13:01:04.496Z,45.77
2022-12-09T13:03:37.562Z,46.28
2022-12-09T13:06:05.349Z,46.16
2022-12-09T13:08:36.648Z,46.39
2022-12-09T13:11:07.877Z,47.28
2022-12-09T13:13:38.698Z,47.62
2022-12-09T13:16:10.158Z,47.37
2022-12-09T13:18:39.825Z,47.39
2022-12-09T13:21:07.926Z,46.71
2022-12-09T13:23:51.177Z,46.97
2022-12-09T13:26:25.154Z,47.66
2022-12-09T13:28:57.615Z,46.61
2022-12-09T13:31:28.924Z,46.62
2022-12-09T13:34:00.376Z,46.90
2022-12-09T13:36:36.472Z,47.01
2022-12-09T13:39:04.542Z,47.60
2022-12-09T13:42:02.793Z,46.85
2022-12-09T13:44:38.474Z,47.42
2022-12-09T13:47:34.819Z,46.34
2022-12-09T13:50:03.780Z,47.07
2022-12-09T13:52:56.492Z,46.46
2022-12-09T13:55:39.674Z,46.75
2022-12-09T13:58:35.077Z,47.62
2022-12-09T14:01:07.953Z,47.88
2022-12-09T14:03:37.055Z,47.11
2022-12-09T14:06:06.970Z,48.09
2022-12-09T14:08:36.881Z,47.41
2022-12-09T14:11:48.210Z,47.98
2022-12-09T14:14:38.229Z,48.78
2022-12-09T14:17:19.141Z,49.08
2022-12-09T14:19:52.924Z,49.01
2022-12-09T14:22:41.570Z,49.03
2022-12-09T14:25:49.722Z,49.78
2022-12-09T14:29:00.959Z,49.45
2022-12-09T14:31:59.604Z,49.74
2022-12-09T14:34:31.058Z,50.09
2022-12-09T14:37:07.076Z,50.22
2022-12-09T14:39:37.771Z,50.25
2022-12-09T14:42:08.682Z,50.49
2022-12-09T14:44:39.120Z,50.50
2022-12-09T14:47:23.168Z,50.84
2022-12-09T14:49:50.879Z,50.93
2022-12-09T14:52:22.994Z,50.53
2022-12-09T14:54:50.847Z,51.18
2022-12-09T14:57:24.383Z,51.21
2022-12-09T14:59:53.672Z,51.19
2022-12-09T15:02:23.834Z,51.46
2022-12-09T15:04:52.397Z,51.42
2022-12-09T15:07:21.620Z,51.62
2022-12-09T15:09:54.496Z,51.20
2022-12-09T15:12:24.111Z,51.62
2022-12-09T15:14:56.390Z,51.63
2022-12-09T15:17:26.927Z,51.24
2022-12-09T15:20:05.782Z,51.64
2022-12-09T15:22:33.706Z,51.39
2022-12-09T15:25:04.500Z,51.88
2022-12-09T15:27:32.662Z,52.15
2022-12-09T15:30:04.279Z,51.89
2022-12-09T15:32:33.636Z,51.71
2022-12-09T15:35:30.870Z,52.02
2022-12-09T15:37:59.478Z,52.08
2022-12-09T15:40:29.279Z,52.57
2022-12-09T15:42:59.465Z,52.69
2022-12-09T15:45:28.397Z,52.62
2022-12-09T15:47:59.127Z,52.63
2022-12-09T15:50:28.432Z,52.96
2022-12-09T15:52:58.438Z,53.16
2022-12-09T15:55:28.356Z,53.46
2022-12-09T15:57:56.782Z,52.66
2022-12-09T16:00:24.913Z,52.66
2022-12-09T16:02:53.992Z,53.62
2022-12-09T16:05:24.975Z,52.90
2022-12-09T16:07:54.631Z,53.45
2022-12-09T16:10:26.611Z,54.01
2022-12-09T16:13:08.611Z,53.35
2022-12-09T16:15:46.069Z,53.33
2022-12-09T16:18:20.617Z,54.11
2022-12-09T16:21:00.283Z,54.63
2022-12-09T16:23:30.552Z,53.72
2022-12-09T16:26:06.315Z,54.00
2022-12-09T16:28:35.246Z,54.37
2022-12-09T16:31:04.317Z,53.88
2022-12-09T16:33:34.370Z,54.01
2022-12-09T16:36:04.725Z,53.79
2022-12-09T16:38:33.956Z,55.00
2022-12-09T16:41:07.040Z,55.07
2022-12-09T16:43:35.047Z,54.40
2022-12-09T16:46:23.850Z,55.22
2022-12-09T16:48:51.783Z,55.10
2022-12-09T16:51:22.867Z,55.57
2022-12-09T16:53:51.681Z,55.32
2022-12-09T16:56:20.744Z,55.08
2022-12-09T16:58:48.589Z,55.81
2022-12-09T17:01:17.544Z,54.82
2022-12-09T17:03:46.836Z,55.53
2022-12-09T17:06:15.132Z,54.94
2022-12-09T17:08:44.661Z,56.10
2022-12-09T17:11:12.559Z,56.25
2022-12-09T17:13:40.790Z,56.36
2022-12-09T17:16:09.521Z,55.71
2022-12-09T17:18:37.492Z,55.46
2022-12-09T17:21:06.817Z,55.22
2022-12-09T17:23:39.711Z,55.37
2022-12-09T17:26:10.587Z,55.72
2022-12-09T17:28:38.835Z,56.63
2022-12-09T17:31:08.877Z,55.70
2022-12-09T17:33:36.766Z,56.63
2022-12-09T17:36:04.809Z,57.53
2022-12-09T17:38:33.078Z,57.21
2022-12-09T17:41:04.607Z,58.06
2022-12-09T17:43:34.082Z,57.34
2022-12-09T17:46:03.815Z,57.41
2022-12-09T17:48:31.964Z,57.50
2022-12-09T17:51:00.660Z,57.16
2022-12-09T17:53:31.651Z,57.55
2022-12-09T17:55:59.588Z,57.39
2022-12-09T17:58:27.647Z,57.61
2022-12-09T18:00:57.173Z,57.64
2022-12-09T18:03:53.902Z,58.02
2022-12-09T18:06:12.978Z,57.58
2022-12-09T18:08:40.836Z,57.61
2022-12-09T18:11:10.698Z,57.90
2022-12-09T18:13:38.717Z,56.77
2022-12-09T18:16:11.124Z,57.44
2022-12-09T18:18:39.072Z,56.38
2022-12-09T18:21:13.654Z,57.29
2022-12-09T18:23:43.388Z,56.79
2022-12-09T18:26:12.362Z,57.27
2022-12-09T18:28:40.412Z,56.93
2022-12-09T18:31:10.246Z,55.98
2022-12-09T18:33:39.480Z,56.58
2022-12-09T18:36:08.098Z,55.99
2022-12-09T18:38:36.016Z,55.83
2022-12-09T18:41:04.096Z,56.94
2022-12-09T18:43:33.836Z,55.77
2022-12-09T18:46:03.130Z,56.02
2022-12-09T18:48:32.753Z,56.47
2022-12-09T18:51:00.632Z,57.31
2022-12-09T18:53:28.422Z,56.62
2022-12-09T18:55:56.384Z,57.21
2022-12-09T18:58:49.527Z,56.44
2022-12-09T19:01:17.140Z,57.15
2022-12-09T19:03:46.518Z,56.33
2022-12-09T19:06:23.326Z,57.47
2022-12-09T19:08:53.826Z,56.95
2022-12-09T19:11:22.568Z,56.58
2022-12-09T19:13:50.564Z,55.70
2022-12-09T19:16:18.735Z,56.30
2022-12-09T19:18:48.205Z,56.14
2022-12-09T19:21:18.783Z,56.65
2022-12-09T19:23:47.004Z,57.02
2022-12-09T19:26:15.534Z,56.32
2022-12-09T19:28:47.137Z,56.36
2022-12-09T19:31:16.582Z,56.48
2022-12-09T19:33:44.546Z,56.84
2022-12-09T19:36:13.929Z,56.88
2022-12-09T19:38:42.484Z,56.52
2022-12-09T19:41:10.580Z,55.80
2022-12-09T19:43:38.695Z,55.72
2022-12-09T19:46:07.461Z,56.99
2022-12-09T19:48:37.126Z,56.78
2022-12-09T19:51:06.469Z,56.47
2022-12-09T19:53:36.321Z,55.78
2022-12-09T19:56:05.572Z,56.83
2022-12-09T19:58:33.954Z,56.23
2022-12-09T20:01:08.555Z,56.24
2022-12-09T20:03:36.554Z,56.96
2022-12-09T20:06:04.802Z,57.06
2022-12-09T20:08:32.902Z,56.81
2022-12-09T20:11:02.304Z,56.12
2022-12-09T20:13:31.994Z,56.41
2022-12-09T20:16:04.686Z,56.60
2022-12-09T20:18:32.672Z,56.44
2022-12-09T20:21:01.640Z,56.23
2022-12-09T20:23:29.646Z,56.16
2022-12-09T20:26:05.860Z,56.21
2022-12-09T20:28:33.857Z,56.23
2022-12-09T20:31:15.712Z,55.44
2022-12-09T20:33:43.702Z,55.75
2022-12-09T20:36:12.696Z,55.90
2022-12-09T20:38:40.598Z,55.38
2022-12-09T20:41:11.224Z,56.20
2022-12-09T20:43:40.314Z,55.56
2022-12-09T20:46:25.184Z,55.31
2022-12-09T20:48:53.274Z,55.87
2022-12-09T20:51:22.967Z,55.46
2022-12-09T20:53:50.957Z,55.47
2022-12-09T20:56:21.158Z,56.25
2022-12-09T20:58:50.983Z,55.75
2022-12-09T21:01:21.219Z,55.87
2022-12-09T21:03:49.256Z,55.24
2022-12-09T21:06:17.845Z,55.31
2022-12-09T21:08:45.699Z,56.08
2022-12-09T21:11:14.822Z,56.19
2022-12-09T21:13:55.109Z,55.02
2022-12-09T21:16:25.368Z,55.32
2022-12-09T21:18:54.402Z,56.16
2022-12-09T21:21:23.059Z,55.60
2022-12-09T21:23:54.128Z,55.18
2022-12-09T21:26:22.998Z,55.18
2022-12-09T21:28:52.486Z,55.31
2022-12-09T21:31:22.983Z,55.83
2022-12-09T21:33:51.438Z,55.40
2022-12-09T21:36:20.636Z,56.25
2022-12-09T21:38:48.632Z,56.28
2022-12-09T21:41:19.339Z,55.40
2022-12-09T21:43:47.174Z,56.33
2022-12-09T21:46:17.662Z,56.28
2022-12-09T21:48:51.560Z,56.54
2022-12-09T21:51:20.288Z,55.45
2022-12-09T21:53:48.219Z,56.47
2022-12-09T21:56:17.207Z,55.50
2022-12-09T21:58:45.126Z,56.68
2022-12-09T22:01:14.167Z,55.75
2022-12-09T22:03:44.534Z,56.07
2022-12-09T22:06:12.559Z,56.88
2022-12-09T22:08:40.862Z,56.45
2022-12-09T22:11:09.816Z,56.21
2022-12-09T22:13:39.723Z,57.01
2022-12-09T22:16:08.327Z,56.66
2022-12-09T22:18:36.199Z,56.45
2022-12-09T22:23:54.427Z,56.72
2022-12-09T22:26:22.522Z,57.13
2022-12-09T22:28:50.355Z,56.91
2022-12-09T22:31:20.645Z,57.00
2022-12-09T22:33:48.624Z,56.82
2022-12-09T22:36:17.844Z,56.91
2022-12-09T22:38:45.694Z,56.98
2022-12-09T22:41:15.393Z,57.46
2022-12-09T22:43:43.614Z,56.72
2022-12-09T22:46:20.735Z,56.98
2022-12-09T22:48:48.712Z,57.48
2022-12-09T22:51:18.968Z,57.52
2022-12-09T22:53:48.048Z,57.52
2022-12-09T22:56:15.780Z,57.68
2022-12-09T22:58:43.447Z,57.29
2022-12-09T23:01:11.985Z,57.92
2022-12-09T23:03:39.700Z,58.00
2022-12-09T23:06:07.746Z,58.03
2022-12-09T23:08:37.600Z,57.70
2022-12-09T23:11:06.844Z,58.29
2022-12-09T23:13:40.468Z,58.04
2022-12-09T23:18:42.710Z,58.26
2022-12-09T23:21:11.244Z,57.68
2022-12-09T23:23:40.300Z,58.72
2022-12-09T23:26:09.124Z,57.73
2022-12-09T23:28:37.221Z,58.31
2022-12-09T23:31:05.113Z,58.65
2022-12-09T23:33:34.024Z,58.46
2022-12-09T23:36:06.224Z,58.21
2022-12-09T23:38:35.088Z,58.88
2022-12-09T23:41:04.263Z,58.60
2022-12-09T23:43:32.222Z,58.38
2022-12-09T23:46:01.320Z,58.77
2022-12-09T23:48:29.064Z,58.58
2022-12-09T23:50:56.787Z,58.86
2022-12-09T23:53:24.639Z,58.31
2022-12-09T23:55:52.908Z,58.74
2022-12-09T23:58:22.086Z,59.05
